createdAt,value
2022-10-05T00:00:01.136Z,11.26
2022-10-05T00:01:01.128Z,11.23
2022-10-05T00:02:01.195Z,11.23
2022-10-05T00:03:01.099Z,11.22
2022-10-05T00:04:01.173Z,11.25
2022-10-05T00:05:01.136Z,11.25
2022-10-05T00:06:01.068Z,11.25
2022-10-05T00:07:01.055Z,11.22
2022-10-05T00:08:01.105Z,11.22
2022-10-05T00:09:01.052Z,11.23
2022-10-05T00:10:01.025Z,11.22
2022-10-05T00:11:01.037Z,11.23
2022-10-05T00:12:01.001Z,11.23
2022-10-05T00:13:00.993Z,11.25
2022-10-05T00:14:00.985Z,11.25
2022-10-05T00:15:00.993Z,11.26
2022-10-05T00:16:01.137Z,11.27
2022-10-05T00:17:01.018Z,11.27
2022-10-05T00:18:00.939Z,11.27
2022-10-05T00:19:00.928Z,11.27
2022-10-05T00:20:00.925Z,11.26
2022-10-05T00:21:00.935Z,11.25
2022-10-05T00:22:00.902Z,11.23
2022-10-05T00:23:00.892Z,11.25
2022-10-05T00:24:00.903Z,11.26
2022-10-05T00:25:00.871Z,11.25
2022-10-05T00:26:00.882Z,11.25
2022-10-05T00:27:00.861Z,11.23
2022-10-05T00:28:00.908Z,11.26
2022-10-05T00:29:00.827Z,11.29
2022-10-05T00:30:00.831Z,11.29
2022-10-05T00:31:00.811Z,11.26
2022-10-05T00:32:00.866Z,11.29
2022-10-05T00:33:00.796Z,11.29
2022-10-05T00:34:00.769Z,11.29
2022-10-05T00:35:00.757Z,11.30
2022-10-05T00:36:00.758Z,11.30
2022-10-05T00:37:00.747Z,11.33
2022-10-05T00:38:00.740Z,11.35
2022-10-05T00:39:00.722Z,11.36
2022-10-05T00:40:00.708Z,11.40
2022-10-05T00:41:00.702Z,11.43
2022-10-05T00:42:00.692Z,11.45
2022-10-05T00:43:00.690Z,11.45
2022-10-05T00:44:00.670Z,11.47
2022-10-05T00:45:00.658Z,11.54
2022-10-05T00:46:00.673Z,11.54
2022-10-05T00:47:00.626Z,11.55
2022-10-05T00:48:00.613Z,11.57
2022-10-05T00:49:00.630Z,11.60
2022-10-05T00:50:00.667Z,11.62
2022-10-05T00:51:00.594Z,11.62
2022-10-05T00:52:00.578Z,11.63
2022-10-05T00:53:00.565Z,11.63
2022-10-05T00:54:00.575Z,11.66
2022-10-05T00:55:00.555Z,11.66
2022-10-05T00:56:00.551Z,11.66
2022-10-05T00:57:00.532Z,11.68
2022-10-05T00:58:00.528Z,11.70
2022-10-05T00:59:00.512Z,11.72
2022-10-05T01:00:00.511Z,11.75
2022-10-05T01:01:00.595Z,11.78
2022-10-05T01:02:00.597Z,11.80
2022-10-05T01:03:00.456Z,11.81
2022-10-05T01:04:00.473Z,11.83
2022-10-05T01:05:00.449Z,11.84
2022-10-05T01:06:00.428Z,11.84
2022-10-05T01:07:00.423Z,11.86
2022-10-05T01:08:00.403Z,11.87
2022-10-05T01:09:00.397Z,11.90
2022-10-05T01:10:00.387Z,11.91
2022-10-05T05:01:07.090Z,11.14
2022-10-05T05:02:07.918Z,11.11
2022-10-05T05:03:07.910Z,11.08
2022-10-05T05:04:07.996Z,11.11
2022-10-05T05:05:07.895Z,11.08
2022-10-05T05:06:22.380Z,11.10
2022-10-05T05:07:07.877Z,11.08
2022-10-05T05:08:07.796Z,11.07
2022-10-05T05:09:07.791Z,11.08
2022-10-05T05:10:07.782Z,11.05
2022-10-05T05:11:10.356Z,11.07
2022-10-05T05:12:07.800Z,11.05
2022-10-05T05:13:07.746Z,11.07
2022-10-05T05:14:07.732Z,11.04
2022-10-05T05:15:07.727Z,10.99
2022-10-05T05:16:07.772Z,10.99
2022-10-05T05:17:12.878Z,10.99
2022-10-05T05:18:07.716Z,10.99
2022-10-05T05:19:07.699Z,10.99
2022-10-05T05:20:07.668Z,10.97
2022-10-05T05:21:07.661Z,10.96
2022-10-05T05:22:07.654Z,10.96
2022-10-05T05:23:07.655Z,10.94
2022-10-05T05:24:07.624Z,10.93
2022-10-05T05:25:07.621Z,10.94
2022-10-05T05:26:07.605Z,10.93
2022-10-05T05:27:07.598Z,10.93
2022-10-05T05:28:08.677Z,10.93
2022-10-05T05:29:07.629Z,10.92
2022-10-05T05:30:07.564Z,10.93
2022-10-05T05:31:07.646Z,10.93
2022-10-05T05:32:07.541Z,10.93
2022-10-05T05:33:07.544Z,10.94
2022-10-05T05:34:07.531Z,10.96
2022-10-05T05:35:07.511Z,10.94
2022-10-05T05:36:07.501Z,10.99
2022-10-05T05:37:07.488Z,10.99
2022-10-05T05:38:07.502Z,10.97
2022-10-05T05:39:07.475Z,10.99
2022-10-05T05:40:07.459Z,10.97
2022-10-05T05:41:07.451Z,10.99
2022-10-05T05:42:07.458Z,11.00
2022-10-05T05:43:07.424Z,11.00
2022-10-05T05:44:07.413Z,11.00
2022-10-05T05:45:07.406Z,11.02
2022-10-05T05:46:07.389Z,11.02
2022-10-05T05:47:07.855Z,11.04
2022-10-05T05:48:07.405Z,11.02
2022-10-05T05:49:07.354Z,11.02
2022-10-05T05:50:07.953Z,11.02
2022-10-05T05:51:07.356Z,11.04
2022-10-05T05:52:07.324Z,11.04
2022-10-05T05:53:07.313Z,11.05
2022-10-05T05:54:07.324Z,11.10
2022-10-05T05:55:07.292Z,11.08
2022-10-05T05:56:07.276Z,11.10
2022-10-05T05:57:07.276Z,11.11
2022-10-05T05:58:07.296Z,11.12
2022-10-05T05:59:07.261Z,11.14
2022-10-05T06:00:07.237Z,11.15
2022-10-05T06:01:13.184Z,11.18
2022-10-05T06:02:07.285Z,11.19
2022-10-05T06:03:07.377Z,11.18
2022-10-05T06:04:07.209Z,11.19
2022-10-05T06:05:07.185Z,11.22
2022-10-05T06:06:07.167Z,11.22
2022-10-05T06:07:07.169Z,11.22
2022-10-05T06:08:07.170Z,11.22
2022-10-05T06:09:07.150Z,11.25
2022-10-05T06:10:07.145Z,11.26
2022-10-05T06:11:07.118Z,11.27
2022-10-05T06:12:07.106Z,11.27
2022-10-05T06:13:07.094Z,11.30
2022-10-05T06:14:07.107Z,11.30
2022-10-05T06:15:07.073Z,11.35
2022-10-05T06:16:07.091Z,11.35
2022-10-05T06:17:07.048Z,11.35
2022-10-05T06:18:07.044Z,11.36
2022-10-05T06:19:07.031Z,11.37
2022-10-05T06:20:07.018Z,11.36
2022-10-05T06:21:07.017Z,11.37
2022-10-05T06:22:07.016Z,11.37
2022-10-05T06:23:06.987Z,11.40
2022-10-05T06:24:06.998Z,11.41
2022-10-05T06:25:06.970Z,11.44
2022-10-05T06:26:10.530Z,11.45
2022-10-05T06:27:06.944Z,11.45
2022-10-05T06:28:06.995Z,11.47
2022-10-05T06:29:06.924Z,11.50
2022-10-05T06:30:06.942Z,11.51
2022-10-05T06:31:06.997Z,11.52
2022-10-05T06:32:06.959Z,11.55
2022-10-05T06:33:06.887Z,11.55
2022-10-05T06:34:06.863Z,11.59
2022-10-05T06:35:06.857Z,11.60
2022-10-05T06:36:06.877Z,11.62
2022-10-05T06:37:06.843Z,11.60
2022-10-05T06:38:06.820Z,11.60
2022-10-05T06:39:06.820Z,11.60
2022-10-05T06:40:06.797Z,11.62
2022-10-05T06:41:06.789Z,11.65
2022-10-05T06:42:06.836Z,11.65
2022-10-05T06:43:06.772Z,11.65
2022-10-05T06:44:06.758Z,11.69
2022-10-05T06:45:06.746Z,11.69
2022-10-05T06:46:06.793Z,11.72
2022-10-05T06:47:06.725Z,11.73
2022-10-05T06:48:06.737Z,11.73
2022-10-05T06:49:06.708Z,11.77
2022-10-05T06:50:06.698Z,11.78
2022-10-05T06:51:06.688Z,11.78
2022-10-05T06:52:06.673Z,11.80
2022-10-05T06:53:06.669Z,11.81
2022-10-05T06:54:06.675Z,11.81
2022-10-05T06:55:09.599Z,11.81
2022-10-05T06:56:06.636Z,11.83
2022-10-05T06:57:06.615Z,11.84
2022-10-05T06:58:06.635Z,11.83
2022-10-05T06:59:06.595Z,11.83
2022-10-05T07:00:06.580Z,11.84
2022-10-05T07:01:06.646Z,11.84
2022-10-05T07:02:06.594Z,11.84
2022-10-05T07:03:06.565Z,11.86
2022-10-05T07:04:06.542Z,11.87
2022-10-05T07:05:06.534Z,11.88
2022-10-05T07:06:06.522Z,11.86
2022-10-05T07:07:06.513Z,11.84
2022-10-05T07:08:06.497Z,11.84
2022-10-05T07:09:06.507Z,11.84
2022-10-05T07:10:06.488Z,11.83
2022-10-05T07:11:06.471Z,11.84
2022-10-05T07:12:06.937Z,11.83
2022-10-05T07:13:06.498Z,11.83
2022-10-05T07:14:06.454Z,11.83
2022-10-05T07:15:06.439Z,11.83
2022-10-05T07:16:06.516Z,11.80
2022-10-05T07:17:06.401Z,11.83
2022-10-05T07:18:06.403Z,11.83
2022-10-05T07:19:06.387Z,11.83
2022-10-05T07:20:06.395Z,11.83
2022-10-05T07:21:06.378Z,11.83
2022-10-05T07:23:06.337Z,11.81
2022-10-05T07:24:06.331Z,11.86
2022-10-05T07:25:06.314Z,11.83
2022-10-05T07:26:06.329Z,11.84
2022-10-05T07:27:06.297Z,11.84
2022-10-05T07:28:06.355Z,11.84
2022-10-05T07:29:06.272Z,11.86
2022-10-05T07:30:06.260Z,11.86
2022-10-05T07:31:06.323Z,11.88
2022-10-05T07:32:06.252Z,11.88
2022-10-05T07:33:06.225Z,11.90
2022-10-05T07:34:06.213Z,11.90
2022-10-05T07:35:06.205Z,11.88
2022-10-05T07:36:06.198Z,11.91
2022-10-05T07:37:06.191Z,11.95
2022-10-05T07:38:06.186Z,11.94
2022-10-05T07:39:06.160Z,11.95
2022-10-05T07:40:06.165Z,11.97
2022-10-05T07:41:06.144Z,11.99
2022-10-05T07:42:06.137Z,12.00
2022-10-05T07:43:06.140Z,12.00
2022-10-05T07:44:11.651Z,12.02
2022-10-05T07:45:06.127Z,12.02
2022-10-05T07:46:06.162Z,12.03
2022-10-05T07:47:06.074Z,12.04
2022-10-05T07:48:06.091Z,12.04
2022-10-05T07:49:06.076Z,12.04
2022-10-05T07:50:06.067Z,12.06
2022-10-05T07:51:06.032Z,12.09
2022-10-05T07:52:06.029Z,12.09
2022-10-05T07:53:06.010Z,12.12
2022-10-05T07:54:06.002Z,12.09
2022-10-05T07:55:06.012Z,12.12
2022-10-05T07:56:05.991Z,12.17
2022-10-05T07:57:05.965Z,12.17
2022-10-05T07:58:05.957Z,12.17
2022-10-05T07:59:05.956Z,12.15
2022-10-05T08:00:05.971Z,12.17
2022-10-05T08:01:05.955Z,12.17
2022-10-05T08:02:06.084Z,12.20
2022-10-05T08:03:05.934Z,12.18
2022-10-05T08:04:05.888Z,12.20
2022-10-05T08:05:05.901Z,12.20
2022-10-05T08:06:05.873Z,12.18
2022-10-05T08:07:05.867Z,12.18
2022-10-05T08:08:05.920Z,12.18
2022-10-05T08:09:05.835Z,12.20
2022-10-05T08:10:05.830Z,12.20
2022-10-05T08:11:05.834Z,12.21
2022-10-05T08:12:05.798Z,12.21
2022-10-05T08:13:05.793Z,12.20
2022-10-05T08:14:05.782Z,12.22
2022-10-05T08:15:05.829Z,12.24
2022-10-05T08:16:05.876Z,12.25
2022-10-05T08:17:05.743Z,12.28
2022-10-05T08:18:05.752Z,12.28
2022-10-05T08:19:05.756Z,12.29
2022-10-05T08:20:05.722Z,12.31
2022-10-05T08:21:05.702Z,12.36
2022-10-05T08:22:05.703Z,12.36
2022-10-05T08:23:05.698Z,12.39
2022-10-05T08:24:05.677Z,12.43
2022-10-05T08:25:05.662Z,12.42
2022-10-05T08:26:05.668Z,12.43
2022-10-05T08:27:05.655Z,12.46
2022-10-05T08:28:05.667Z,12.47
2022-10-05T08:29:08.207Z,12.49
2022-10-05T08:30:05.607Z,12.54
2022-10-05T08:31:05.633Z,12.55
2022-10-05T08:32:05.607Z,12.57
2022-10-05T08:33:05.572Z,12.60
2022-10-05T08:34:05.577Z,12.61
2022-10-05T08:35:05.554Z,12.65
2022-10-05T08:36:05.553Z,12.68
2022-10-05T08:37:05.552Z,12.70
2022-10-05T08:38:05.532Z,12.72
2022-10-05T08:39:05.510Z,12.75
2022-10-05T08:40:05.495Z,12.78
2022-10-05T08:41:05.488Z,12.79
2022-10-05T08:42:05.480Z,12.82
2022-10-05T08:43:05.485Z,12.83
2022-10-05T08:44:05.472Z,12.85
2022-10-05T08:45:05.440Z,12.87
2022-10-05T08:46:05.510Z,12.90
2022-10-05T08:47:05.417Z,12.90
2022-10-05T08:48:05.451Z,12.94
2022-10-05T08:49:05.398Z,12.94
2022-10-05T08:50:05.407Z,12.93
2022-10-05T08:51:05.376Z,12.95
2022-10-05T08:52:05.374Z,12.97
2022-10-05T08:53:05.357Z,13.00
2022-10-05T08:54:05.369Z,13.03
2022-10-05T08:55:05.333Z,13.03
2022-10-05T08:56:05.327Z,13.03
2022-10-05T08:57:05.318Z,13.05
2022-10-05T08:58:05.320Z,13.09
2022-10-05T08:59:05.318Z,13.09
2022-10-05T09:00:05.282Z,13.11
2022-10-05T09:01:05.368Z,13.12
2022-10-05T09:02:05.371Z,13.13
2022-10-05T09:03:05.246Z,13.16
2022-10-05T09:04:05.250Z,13.18
2022-10-05T09:05:05.251Z,13.22
2022-10-05T09:06:05.250Z,13.22
2022-10-05T09:07:05.211Z,13.25
2022-10-05T09:08:05.194Z,13.27
2022-10-05T09:09:05.178Z,13.28
2022-10-05T09:10:05.193Z,13.33
2022-10-05T09:11:05.192Z,13.38
2022-10-05T09:12:05.153Z,13.39
2022-10-05T09:13:05.166Z,13.42
2022-10-05T09:14:05.147Z,13.44
2022-10-05T09:15:24.973Z,13.46
2022-10-05T09:16:05.325Z,13.47
2022-10-05T09:17:05.112Z,13.49
2022-10-05T09:18:05.108Z,13.47
2022-10-05T09:19:05.069Z,13.50
2022-10-05T09:20:05.062Z,13.50
2022-10-05T09:21:05.048Z,13.54
2022-10-05T09:22:05.055Z,13.57
2022-10-05T09:23:05.029Z,13.59
2022-10-05T09:24:05.019Z,13.63
2022-10-05T09:25:05.011Z,13.65
2022-10-05T09:26:04.994Z,13.71
2022-10-05T09:27:05.017Z,13.70
2022-10-05T09:28:05.042Z,13.75
2022-10-05T09:29:04.955Z,13.78
2022-10-05T09:30:04.960Z,13.79
2022-10-05T09:31:05.015Z,13.79
2022-10-05T09:32:04.933Z,13.85
2022-10-05T09:33:04.938Z,13.89
2022-10-05T09:34:04.920Z,13.90
2022-10-05T09:35:04.908Z,13.95
2022-10-05T09:36:04.907Z,14.00
2022-10-05T09:37:04.874Z,14.05
2022-10-05T09:38:04.868Z,14.05
2022-10-05T09:39:04.852Z,14.07
2022-10-05T09:40:04.843Z,14.10
2022-10-05T09:41:04.846Z,14.12
2022-10-05T09:42:04.838Z,14.15
2022-10-05T09:43:04.816Z,14.17
2022-10-05T09:44:04.800Z,14.20
2022-10-05T09:45:04.812Z,14.18
2022-10-05T09:46:04.831Z,14.22
2022-10-05T09:47:04.765Z,14.17
2022-10-05T09:48:04.763Z,14.20
2022-10-05T09:49:04.751Z,14.18
2022-10-05T09:50:04.746Z,14.18
2022-10-05T09:51:04.865Z,14.22
2022-10-05T09:52:04.710Z,14.25
2022-10-05T09:53:04.704Z,14.29
2022-10-05T09:54:04.689Z,14.30
2022-10-05T09:55:04.679Z,14.33
2022-10-05T09:56:04.680Z,14.30
2022-10-05T09:57:04.651Z,14.35
2022-10-05T09:58:04.647Z,14.36
2022-10-05T09:59:04.631Z,14.41
2022-10-05T10:00:04.737Z,14.44
2022-10-05T10:01:09.594Z,14.47
2022-10-05T10:02:04.717Z,14.50
2022-10-05T10:03:04.664Z,14.53
2022-10-05T10:04:04.573Z,14.58
2022-10-05T10:05:04.568Z,14.58
2022-10-05T10:06:04.573Z,14.62
2022-10-05T10:07:04.568Z,14.66
2022-10-05T10:08:04.543Z,14.66
2022-10-05T10:09:04.518Z,14.68
2022-10-05T10:10:04.516Z,14.65
2022-10-05T10:11:04.512Z,14.65
2022-10-05T10:12:04.500Z,14.68
2022-10-05T10:13:04.491Z,14.69
2022-10-05T10:14:04.470Z,14.72
2022-10-05T10:15:04.458Z,14.70
2022-10-05T10:16:04.586Z,14.70
2022-10-05T10:17:04.482Z,14.73
2022-10-05T10:18:04.434Z,14.78
2022-10-05T10:19:04.418Z,14.78
2022-10-05T10:20:04.406Z,14.73
2022-10-05T10:21:04.392Z,14.79
2022-10-05T10:22:04.388Z,14.82
2022-10-05T10:23:04.396Z,14.86
2022-10-05T10:24:04.369Z,14.91
2022-10-05T10:25:04.381Z,14.91
2022-10-05T10:26:04.347Z,14.94
2022-10-05T10:27:04.326Z,14.99
2022-10-05T10:28:04.356Z,15.00
2022-10-05T10:29:04.321Z,15.04
2022-10-05T10:30:04.302Z,15.09
2022-10-05T10:31:04.331Z,15.18
2022-10-05T10:32:04.273Z,15.21
2022-10-05T10:33:04.265Z,15.24
2022-10-05T10:34:04.258Z,15.27
2022-10-05T10:35:04.265Z,15.31
2022-10-05T10:36:06.848Z,15.35
2022-10-05T10:37:04.221Z,15.39
2022-10-05T10:38:04.207Z,15.43
2022-10-05T10:39:04.205Z,15.46
2022-10-05T10:40:04.190Z,15.52
2022-10-05T10:41:04.197Z,15.52
2022-10-05T10:42:04.164Z,15.55
2022-10-05T10:43:04.152Z,15.62
2022-10-05T10:44:04.141Z,15.67
2022-10-05T10:45:04.148Z,15.72
2022-10-05T10:46:04.738Z,15.75
2022-10-05T10:47:04.106Z,15.79
2022-10-05T10:48:04.105Z,15.80
2022-10-05T10:49:04.085Z,15.83
2022-10-05T10:50:04.084Z,15.91
2022-10-05T10:51:04.089Z,15.91
2022-10-05T10:52:04.059Z,15.97
2022-10-05T10:53:04.042Z,15.97
2022-10-05T10:54:04.035Z,16.01
2022-10-05T10:55:04.021Z,16.02
2022-10-05T10:56:04.013Z,16.09
2022-10-05T10:57:04.350Z,16.13
2022-10-05T10:58:04.021Z,16.13
2022-10-05T10:59:03.993Z,16.17
2022-10-05T11:00:03.980Z,16.21
2022-10-05T11:01:03.977Z,16.29
2022-10-05T11:02:04.009Z,16.31
2022-10-05T11:03:04.013Z,16.36
2022-10-05T11:04:03.929Z,16.41
2022-10-05T11:05:03.910Z,16.46
2022-10-05T11:06:03.933Z,16.49
2022-10-05T11:07:03.924Z,16.53
2022-10-05T11:08:03.895Z,16.54
2022-10-05T11:09:03.869Z,16.56
2022-10-05T11:10:03.869Z,16.61
2022-10-05T11:11:03.844Z,16.66
2022-10-05T11:12:03.861Z,16.69
2022-10-05T11:13:03.854Z,16.74
2022-10-05T11:14:03.865Z,16.79
2022-10-05T11:15:03.805Z,16.84
2022-10-05T11:16:03.930Z,16.87
2022-10-05T11:17:03.793Z,16.89
2022-10-05T11:18:09.796Z,16.93
2022-10-05T11:19:03.756Z,16.94
2022-10-05T11:20:05.081Z,16.94
2022-10-05T11:21:03.733Z,17.01
2022-10-05T11:22:03.735Z,17.04
2022-10-05T11:23:03.719Z,17.05
2022-10-05T11:24:03.717Z,17.02
2022-10-05T11:25:03.698Z,17.05
2022-10-05T11:26:03.690Z,17.05
2022-10-05T11:27:03.705Z,17.05
2022-10-05T11:28:03.761Z,17.08
2022-10-05T11:29:03.675Z,17.11
2022-10-05T11:30:03.642Z,17.12
2022-10-05T11:31:03.677Z,17.14
2022-10-05T11:32:03.639Z,17.15
2022-10-05T11:33:03.612Z,17.16
2022-10-05T11:34:03.620Z,17.23
2022-10-05T11:35:03.607Z,17.27
2022-10-05T11:36:03.574Z,17.27
2022-10-05T11:37:03.568Z,17.26
2022-10-05T11:38:03.571Z,17.30
2022-10-05T11:39:03.544Z,17.31
2022-10-05T11:40:03.550Z,17.34
2022-10-05T11:41:03.544Z,17.36
2022-10-05T11:42:03.511Z,17.39
2022-10-05T11:43:03.503Z,17.44
2022-10-05T11:44:06.304Z,17.41
2022-10-05T11:45:03.473Z,17.41
2022-10-05T11:46:03.516Z,17.44
2022-10-05T11:47:03.500Z,17.45
2022-10-05T11:48:03.462Z,17.45
2022-10-05T11:49:03.438Z,17.48
2022-10-05T11:50:03.426Z,17.51
2022-10-05T11:51:03.427Z,17.56
2022-10-05T11:52:03.412Z,17.64
2022-10-05T11:53:03.408Z,17.65
2022-10-05T11:54:03.378Z,17.68
2022-10-05T11:55:10.969Z,17.68
2022-10-05T11:56:03.360Z,17.76
2022-10-05T11:57:03.354Z,17.76
2022-10-05T11:58:03.341Z,17.78
2022-10-05T11:59:03.370Z,17.76
2022-10-05T12:00:03.329Z,17.76
2022-10-05T12:01:03.306Z,17.72
2022-10-05T12:02:03.294Z,17.76
2022-10-05T12:03:03.422Z,17.79
2022-10-05T12:04:03.388Z,17.80
2022-10-05T12:05:03.291Z,17.86
2022-10-05T12:06:03.261Z,17.86
2022-10-05T12:07:03.248Z,17.87
2022-10-05T12:08:03.265Z,17.89
2022-10-05T12:09:03.215Z,17.94
2022-10-05T12:10:03.219Z,17.98
2022-10-05T12:11:03.204Z,18.03
2022-10-05T12:12:03.205Z,18.05
2022-10-05T12:13:03.187Z,18.08
2022-10-05T12:14:03.891Z,18.13
2022-10-05T12:15:03.161Z,18.11
2022-10-05T12:16:03.267Z,18.11
2022-10-05T12:17:03.182Z,18.15
2022-10-05T12:18:03.144Z,18.15
2022-10-05T12:19:03.140Z,18.15
2022-10-05T12:20:03.215Z,18.10
2022-10-05T12:21:03.102Z,18.11
2022-10-05T12:22:03.101Z,18.10
2022-10-05T12:23:03.086Z,18.07
2022-10-05T12:24:03.071Z,18.07
2022-10-05T12:25:03.051Z,18.08
2022-10-05T12:26:03.060Z,18.08
2022-10-05T12:27:03.033Z,18.07
2022-10-05T12:28:03.065Z,18.07
2022-10-05T12:29:03.005Z,18.04
2022-10-05T12:30:03.024Z,18.04
2022-10-05T12:31:03.034Z,18.03
2022-10-05T12:32:02.975Z,18.04
2022-10-05T12:33:02.982Z,18.04
2022-10-05T12:34:02.974Z,18.05
2022-10-05T12:35:02.973Z,18.05
2022-10-05T12:36:02.942Z,18.11
2022-10-05T12:37:04.425Z,18.13
2022-10-05T12:38:02.916Z,18.16
2022-10-05T12:39:02.895Z,18.20
2022-10-05T12:40:03.491Z,18.23
2022-10-05T12:41:02.879Z,18.26
2022-10-05T12:42:02.851Z,18.35
2022-10-05T12:43:02.849Z,18.38
2022-10-05T12:44:02.878Z,18.47
2022-10-05T12:45:02.866Z,18.49
2022-10-05T12:46:02.873Z,18.50
2022-10-05T12:47:02.816Z,18.53
2022-10-05T12:48:02.815Z,18.56
2022-10-05T12:49:02.812Z,18.60
2022-10-05T12:50:02.803Z,18.68
2022-10-05T12:51:02.769Z,18.75
2022-10-05T12:52:02.803Z,18.81
2022-10-05T12:53:02.743Z,18.92
2022-10-05T12:54:02.727Z,18.98
2022-10-05T12:55:02.722Z,19.02
2022-10-05T12:56:02.711Z,19.07
2022-10-05T12:57:02.705Z,19.08
2022-10-05T12:58:02.715Z,19.16
2022-10-05T12:59:02.692Z,19.14
2022-10-05T13:00:02.666Z,19.16
2022-10-05T13:01:02.721Z,19.18
2022-10-05T13:02:02.675Z,19.19
2022-10-05T13:03:02.673Z,19.18
2022-10-05T13:04:02.623Z,19.19
2022-10-05T13:05:02.617Z,19.16
2022-10-05T13:06:03.048Z,19.18
2022-10-05T13:07:02.590Z,19.22
2022-10-05T13:08:02.590Z,19.24
2022-10-05T13:09:02.588Z,19.26
2022-10-05T13:10:02.569Z,19.24
2022-10-05T13:11:02.546Z,19.22
2022-10-05T13:12:02.547Z,19.27
2022-10-05T13:13:02.531Z,19.30
2022-10-05T13:14:02.545Z,19.30
2022-10-05T13:15:02.530Z,19.31
2022-10-05T13:16:02.631Z,19.37
2022-10-05T13:17:02.484Z,19.40
2022-10-05T13:18:02.466Z,19.44
2022-10-05T13:19:02.472Z,19.48
2022-10-05T13:20:02.490Z,19.51
2022-10-05T13:21:02.445Z,19.56
2022-10-05T13:22:02.426Z,19.64
2022-10-05T13:23:02.416Z,19.70
2022-10-05T13:24:02.499Z,19.74
2022-10-05T13:25:02.400Z,19.76
2022-10-05T13:26:02.405Z,19.84
2022-10-05T13:27:02.380Z,19.82
2022-10-05T13:28:02.429Z,19.91
2022-10-05T13:29:02.351Z,19.99
2022-10-05T13:30:02.357Z,20.02
2022-10-05T13:31:02.403Z,20.06
2022-10-05T13:32:02.329Z,20.10
2022-10-05T13:33:02.329Z,20.13
2022-10-05T13:34:02.290Z,20.18
2022-10-05T13:35:02.294Z,20.22
2022-10-05T13:36:02.282Z,20.25
2022-10-05T13:37:02.307Z,20.31
2022-10-05T13:38:02.249Z,20.32
2022-10-05T13:39:02.257Z,20.39
2022-10-05T13:40:02.230Z,20.44
2022-10-05T13:41:02.236Z,20.44
2022-10-05T13:42:02.204Z,20.55
2022-10-05T13:43:02.225Z,20.58
2022-10-05T13:44:02.192Z,20.62
2022-10-05T13:45:02.380Z,20.65
2022-10-05T13:46:02.250Z,20.65
2022-10-05T13:47:02.172Z,20.63
2022-10-05T13:48:02.139Z,20.62
2022-10-05T13:49:02.142Z,20.63
2022-10-05T13:50:02.190Z,20.63
2022-10-05T13:51:02.143Z,20.65
2022-10-05T13:52:02.103Z,20.70
2022-10-05T13:53:02.090Z,20.70
2022-10-05T13:54:02.090Z,20.69
2022-10-05T13:55:02.121Z,20.74
2022-10-05T13:56:02.084Z,20.77
2022-10-05T13:57:02.058Z,20.82
2022-10-05T13:58:02.042Z,20.84
2022-10-05T13:59:02.031Z,20.87
2022-10-05T14:00:02.020Z,20.90
2022-10-05T14:02:18.364Z,20.92
2022-10-05T14:03:19.371Z,20.92
2022-10-05T14:04:19.311Z,20.97
2022-10-05T14:05:19.272Z,21.02
2022-10-05T14:06:19.276Z,21.02
2022-10-05T14:07:19.248Z,21.07
2022-10-05T14:08:19.285Z,21.07
2022-10-05T14:09:19.270Z,21.11
2022-10-05T14:10:19.246Z,21.15
2022-10-05T14:11:19.215Z,21.17
2022-10-05T14:12:19.225Z,21.20
2022-10-05T14:13:19.212Z,21.27
2022-10-05T14:14:19.194Z,21.35
2022-10-05T14:15:19.171Z,21.40
2022-10-05T14:16:19.210Z,21.43
2022-10-05T14:17:19.188Z,21.50
2022-10-05T14:18:19.164Z,21.46
2022-10-05T14:19:19.129Z,21.50
2022-10-05T14:20:19.128Z,21.50
2022-10-05T14:21:19.132Z,21.50
2022-10-05T14:22:19.103Z,21.51
2022-10-05T14:23:22.450Z,21.52
2022-10-05T14:24:32.120Z,21.54
2022-10-05T14:25:19.072Z,21.58
2022-10-05T14:26:19.071Z,21.66
2022-10-05T14:27:19.042Z,21.66
2022-10-05T14:28:19.094Z,21.66
2022-10-05T14:29:19.027Z,21.67
2022-10-05T14:30:19.023Z,21.69
2022-10-05T14:31:19.462Z,21.69
2022-10-05T14:32:19.071Z,21.70
2022-10-05T14:33:18.978Z,21.76
2022-10-05T14:34:18.993Z,21.75
2022-10-05T14:35:18.960Z,21.73
2022-10-05T14:36:23.647Z,21.77
2022-10-05T14:37:18.954Z,21.82
2022-10-05T14:38:18.939Z,21.83
2022-10-05T14:39:18.949Z,21.89
2022-10-05T14:40:18.921Z,21.89
2022-10-05T14:41:19.092Z,21.91
2022-10-05T14:42:18.884Z,21.88
2022-10-05T14:43:18.875Z,21.85
2022-10-05T14:44:18.871Z,21.89
2022-10-05T14:45:18.877Z,21.92
2022-10-05T14:46:23.269Z,21.92
2022-10-05T14:47:18.846Z,21.96
2022-10-05T14:48:18.814Z,21.96
2022-10-05T14:49:18.813Z,21.93
2022-10-05T14:50:18.818Z,21.93
2022-10-05T14:51:18.832Z,21.95
2022-10-05T14:52:18.778Z,21.96
2022-10-05T14:53:18.763Z,21.99
2022-10-05T14:54:18.762Z,22.00
2022-10-05T14:55:18.743Z,22.02
2022-10-05T14:56:18.757Z,21.99
2022-10-05T14:57:18.741Z,21.98
2022-10-05T14:58:18.728Z,21.96
2022-10-05T14:59:18.700Z,21.95
2022-10-05T15:00:18.714Z,21.98
2022-10-05T15:01:18.738Z,22.00
2022-10-05T15:02:18.795Z,22.06
2022-10-05T15:03:18.714Z,22.10
2022-10-05T15:04:18.660Z,22.10
2022-10-05T15:05:18.670Z,22.13
2022-10-05T15:06:18.657Z,22.08
2022-10-05T15:07:18.637Z,22.08
2022-10-05T15:08:18.614Z,22.07
2022-10-05T15:09:18.594Z,22.07
2022-10-05T15:10:18.590Z,22.00
2022-10-05T15:11:18.582Z,22.06
2022-10-05T15:12:18.570Z,22.00
2022-10-05T15:13:18.570Z,22.02
2022-10-05T15:14:18.544Z,22.06
2022-10-05T15:15:18.538Z,22.07
2022-10-05T15:16:19.123Z,22.08
2022-10-05T15:17:18.517Z,22.13
2022-10-05T15:18:18.528Z,22.18
2022-10-05T15:19:18.510Z,22.20
2022-10-05T15:20:18.484Z,22.23
2022-10-05T15:21:18.559Z,22.28
2022-10-05T15:22:18.465Z,22.28
2022-10-05T15:23:18.498Z,22.32
2022-10-05T15:24:18.437Z,22.32
2022-10-05T15:25:18.434Z,22.30
2022-10-05T15:26:18.595Z,22.28
2022-10-05T15:27:18.406Z,22.26
2022-10-05T15:28:18.454Z,22.28
2022-10-05T15:29:18.388Z,22.26
2022-10-05T15:30:18.395Z,22.25
2022-10-05T15:31:18.460Z,22.22
2022-10-05T15:32:18.359Z,22.26
2022-10-05T15:33:18.338Z,22.25
2022-10-05T15:34:18.343Z,22.22
2022-10-05T15:35:18.317Z,22.22
2022-10-05T15:36:18.710Z,22.17
2022-10-05T15:37:18.290Z,22.18
2022-10-05T15:38:18.297Z,22.18
2022-10-05T15:39:18.275Z,22.23
2022-10-05T15:40:18.298Z,22.25
2022-10-05T15:41:18.261Z,22.22
2022-10-05T15:42:18.257Z,22.17
2022-10-05T15:43:18.247Z,22.18
2022-10-05T15:44:18.232Z,22.18
2022-10-05T15:45:18.223Z,22.22
2022-10-05T15:46:18.267Z,22.29
2022-10-05T15:47:18.198Z,22.32
2022-10-05T15:48:18.179Z,22.33
2022-10-05T15:49:18.172Z,22.32
2022-10-05T15:50:18.168Z,22.38
2022-10-05T15:51:18.152Z,22.43
2022-10-05T15:52:18.161Z,22.48
2022-10-05T15:53:18.137Z,22.54
2022-10-05T15:54:18.129Z,22.57
2022-10-05T15:55:18.117Z,22.62
2022-10-05T15:56:18.138Z,22.62
2022-10-05T15:57:18.117Z,22.60
2022-10-05T15:58:18.073Z,22.66
2022-10-05T15:59:18.074Z,22.69
2022-10-05T16:00:18.051Z,22.73
2022-10-05T16:01:18.083Z,22.69
2022-10-05T16:02:18.090Z,22.69
2022-10-05T16:03:18.041Z,22.65
2022-10-05T16:04:18.012Z,22.54
2022-10-05T16:05:18.004Z,22.44
2022-10-05T16:06:17.993Z,22.36
2022-10-05T16:07:17.979Z,22.29
2022-10-05T16:08:17.976Z,22.17
2022-10-05T16:09:17.976Z,22.11
2022-10-05T16:10:17.943Z,22.07
2022-10-05T16:11:19.174Z,22.11
2022-10-05T16:12:17.927Z,22.08
2022-10-05T16:13:17.937Z,21.99
2022-10-05T16:14:17.902Z,21.92
2022-10-05T16:15:17.888Z,21.83
2022-10-05T16:16:17.968Z,21.76
2022-10-05T16:17:17.995Z,21.69
2022-10-05T16:18:17.870Z,21.61
2022-10-05T16:19:17.881Z,21.57
2022-10-05T16:20:17.848Z,21.54
2022-10-05T16:21:17.827Z,21.52
2022-10-05T16:22:17.824Z,21.46
2022-10-05T16:23:17.810Z,21.42
2022-10-05T16:24:17.837Z,21.37
2022-10-05T16:25:17.797Z,21.35
2022-10-05T16:26:17.772Z,21.33
2022-10-05T16:27:17.764Z,21.27
2022-10-05T16:28:17.822Z,21.22
2022-10-05T16:29:17.742Z,21.20
2022-10-05T16:30:17.771Z,21.14
2022-10-05T16:31:17.868Z,21.11
2022-10-05T16:32:17.733Z,21.07
2022-10-05T16:33:17.705Z,21.03
2022-10-05T16:34:17.696Z,20.99
2022-10-05T16:35:17.676Z,20.93
2022-10-05T16:36:17.723Z,20.90
2022-10-05T16:37:17.778Z,20.85
2022-10-05T16:38:17.641Z,20.82
2022-10-05T16:39:17.631Z,20.80
2022-10-05T16:40:17.655Z,20.74
2022-10-05T16:41:18.594Z,20.70
2022-10-05T16:42:17.627Z,20.66
2022-10-05T16:43:17.590Z,20.60
2022-10-05T16:44:17.579Z,20.58